Time;durP1;ratioP1;P1;durP2;ratioP2;P2;SDS_P1;SDS_P2;PMS_P1;PMS_P2;Temp;Humidity;BMP_temperature;BMP_pressure;BME280_temperature;BME280_humidity;BME280_pressure;Samples;Min_cycle;Max_cycle;Signal;HPM_P1;HPM_P2
2023/04/14 00:00:55;;;;;;;16.90;15.50;;;;;;;21.14;35.39;94131.47;6193815;28;108973;-66
2023/04/14 00:03:58;;;;;;;16.70;15.30;;;;;;;21.13;35.37;94136.03;6220547;22;108967;-62
2023/04/14 00:07:02;;;;;;;18.47;16.90;;;;;;;21.12;35.49;94137.13;6211560;28;109029;-61
2023/04/14 00:10:06;;;;;;;15.53;14.23;;;;;;;21.12;35.17;94125.69;6212034;28;108900;-61
2023/04/14 00:13:09;;;;;;;17.10;15.80;;;;;;;21.13;35.39;94127.25;6200955;28;108977;-61
2023/04/14 00:16:13;;;;;;;17.87;16.37;;;;;;;21.11;35.33;94114.28;6209826;27;108927;-62
2023/04/14 00:19:16;;;;;;;18.70;17.20;;;;;;;21.12;35.46;94115.06;6210956;28;108897;-62
2023/04/14 00:22:20;;;;;;;19.57;17.97;;;;;;;21.11;35.15;94114.28;6210644;28;109347;-61
2023/04/14 00:25:23;;;;;;;18.77;17.17;;;;;;;21.12;35.55;94097.22;6201023;28;108992;-61
2023/04/14 00:28:26;;;;;;;18.70;17.20;;;;;;;21.11;35.15;94089.56;6207548;28;108880;-61
2023/04/14 00:31:31;;;;;;;19.53;17.87;;;;;;;21.12;35.28;94101.75;6214752;28;108895;-61
2023/04/14 00:34:34;;;;;;;20.73;19.10;;;;;;;21.11;35.41;94098.31;6210681;28;110275;-62
2023/04/14 00:37:37;;;;;;;21.40;19.70;;;;;;;21.11;35.33;94098.31;6202866;28;110210;-61
2023/04/14 00:40:40;;;;;;;20.93;19.13;;;;;;;21.10;35.11;94109.28;6235589;27;108884;-62
2023/04/14 00:43:44;;;;;;;21.53;19.73;;;;;;;21.11;35.05;94113.50;6214777;27;108907;-60
2023/04/14 00:46:48;;;;;;;22.87;20.97;;;;;;;21.10;35.00;94119.94;6208151;27;108913;-60
2023/04/14 00:49:52;;;;;;;22.03;20.10;;;;;;;21.09;35.14;94113.81;6218629;28;108968;-61
2023/04/14 00:52:56;;;;;;;22.00;20.17;;;;;;;21.07;35.07;94100.06;6221805;27;110093;-62
2023/04/14 00:55:59;;;;;;;24.10;22.00;;;;;;;21.07;35.06;94104.63;6215172;27;108888;-60
2023/04/14 00:59:04;;;;;;;24.10;21.90;;;;;;;21.07;35.18;94096.63;6207090;28;109852;-62
2023/04/14 01:02:08;;;;;;;24.63;22.53;;;;;;;21.06;35.14;94092.41;6218364;27;109066;-62
2023/04/14 01:05:11;;;;;;;25.30;23.17;;;;;;;21.06;35.21;94092.41;6210165;28;108872;-61
2023/04/14 01:08:15;;;;;;;25.97;23.67;;;;;;;21.06;35.20;94092.41;6209842;28;108984;-69
2023/04/14 01:11:29;;;;;;;27.30;25.00;;;;;;;21.05;35.09;94075.69;6200258;28;110035;-62
2023/04/14 01:14:41;;;;;;;27.10;24.80;;;;;;;21.07;35.17;94088.66;6218742;28;108949;-62
2023/04/14 01:17:54;;;;;;;27.10;24.70;;;;;;;21.06;35.04;94087.88;6206728;28;108942;-61
2023/04/14 01:21:05;;;;;;;26.17;23.90;;;;;;;21.06;35.08;94089.75;6189296;28;108873;-61
2023/04/14 01:24:26;;;;;;;27.23;24.73;;;;;;;21.06;35.14;94087.09;6207595;28;108974;-62
2023/04/14 01:27:41;;;;;;;28.40;25.90;;;;;;;21.07;35.08;94070.03;6213201;28;108849;-61
2023/04/14 01:30:59;;;;;;;28.37;25.80;;;;;;;21.07;35.13;94083.34;6210843;28;108911;-61
2023/04/14 01:34:13;;;;;;;27.87;25.50;;;;;;;21.05;35.20;94080.22;6188553;28;108790;-60
2023/04/14 01:37:20;;;;;;;28.70;26.27;;;;;;;21.04;35.00;94082.06;6209660;28;109031;-63
2023/04/14 01:40:24;;;;;;;28.80;26.20;;;;;;;21.04;34.96;94081.28;6209369;28;109299;-61
2023/04/14 01:43:30;;;;;;;28.60;26.10;;;;;;;21.03;35.09;94082.41;6205033;28;110438;-61
2023/04/14 01:46:35;;;;;;;29.27;26.67;;;;;;;21.03;35.16;94091.16;6203569;28;109141;-61
2023/04/14 01:49:42;;;;;;;30.10;27.53;;;;;;;21.03;34.82;94085.06;6222423;28;108951;-61
2023/04/14 01:52:47;;;;;;;29.40;26.87;;;;;;;21.03;34.78;94079.72;6220507;27;108900;-60
2023/04/14 01:55:53;;;;;;;30.57;27.87;;;;;;;21.00;35.09;94062.50;6220823;28;109692;-60
2023/04/14 01:58:57;;;;;;;29.47;26.90;;;;;;;21.02;34.96;94102.91;6212469;28;108884;-60
2023/04/14 02:02:03;;;;;;;29.30;26.90;;;;;;;21.01;35.11;94082.72;6213620;28;108975;-61
2023/04/14 02:05:10;;;;;;;31.00;28.10;;;;;;;21.01;35.08;94081.94;6213575;28;108899;-60
2023/04/14 02:08:15;;;;;;;29.97;27.37;;;;;;;21.01;34.84;94079.28;6203676;28;109021;-62
2023/04/14 02:11:19;;;;;;;30.53;27.93;;;;;;;21.02;34.95;94075.53;6224081;28;109030;-60
2023/04/14 02:14:24;;;;;;;29.47;26.87;;;;;;;21.01;35.18;94084.59;6225993;27;108985;-62
2023/04/14 02:17:28;;;;;;;30.97;28.33;;;;;;;21.01;34.79;94096.03;6207568;28;109705;-62
2023/04/14 02:20:34;;;;;;;30.70;28.10;;;;;;;21.00;34.87;94088.34;6207210;28;108865;-62
2023/04/14 02:23:37;;;;;;;31.10;28.43;;;;;;;21.02;34.94;94096.78;6213646;28;108908;-66
2023/04/14 02:26:45;;;;;;;32.53;29.63;;;;;;;21.01;34.91;94088.03;6220246;28;108920;-62
2023/04/14 02:29:54;;;;;;;32.67;29.80;;;;;;;21.01;34.79;94089.91;6215990;28;108918;-62
2023/04/14 02:33:03;;;;;;;32.83;30.00;;;;;;;21.00;35.11;94077.69;6229849;27;108868;-61
2023/04/14 02:36:16;;;;;;;34.07;31.20;;;;;;;20.99;35.08;94084.13;6205353;28;108863;-61
2023/04/14 02:39:26;;;;;;;31.70;28.93;;;;;;;20.99;34.86;94092.09;6214574;28;109321;-62
2023/04/14 02:42:31;;;;;;;33.53;30.60;;;;;;;21.00;34.80;94098.97;6202504;28;108789;-61
2023/04/14 02:45:36;;;;;;;34.03;31.13;;;;;;;20.99;34.77;94086.78;6216863;28;108928;-61
2023/04/14 02:48:42;;;;;;;34.57;31.57;;;;;;;20.98;34.98;94066.59;6216259;28;108903;-62
2023/04/14 02:51:48;;;;;;;33.87;30.87;;;;;;;20.96;34.97;94076.78;6208731;27;109007;-63
2023/04/14 02:54:52;;;;;;;33.83;31.03;;;;;;;20.93;35.02;94084.31;6208507;28;108939;-62
2023/04/14 02:57:56;;;;;;;34.17;31.13;;;;;;;;;;6212851;28;108921;-62
2023/04/14 03:01:00;;;;;;;34.43;31.43;;;;;;;20.96;35.04;94074.91;6218002;28;109321;-61
2023/04/14 03:04:04;;;;;;;36.10;32.90;;;;;;;20.97;35.15;94083.66;6213072;28;110872;-62
2023/04/14 03:07:12;;;;;;;35.33;32.37;;;;;;;20.96;34.70;94077.56;6226069;27;109213;-61
2023/04/14 03:10:15;;;;;;;34.57;31.50;;;;;;;20.96;35.05;94061.59;6204039;28;109013;-61
2023/04/14 03:13:20;;;;;;;34.70;31.83;;;;;;;20.98;34.85;94055.97;6215396;28;109263;-62
2023/04/14 03:16:26;;;;;;;34.67;31.67;;;;;;;20.99;35.06;94060.19;6206325;28;109014;-62
2023/04/14 03:19:31;;;;;;;35.00;31.87;;;;;;;21.00;34.80;94049.22;6204084;28;108894;-62
2023/04/14 03:22:39;;;;;;;35.60;32.50;;;;;;;21.01;34.91;94052.69;6213895;28;108812;-62
2023/04/14 03:25:43;;;;;;;41.20;37.50;;;;;;;21.01;35.10;94056.13;6212966;28;109010;-62
2023/04/14 03:28:47;;;;;;;35.40;32.40;;;;;;;21.00;34.98;94061.75;6210060;28;108972;-59
2023/04/14 03:31:51;;;;;;;37.20;34.10;;;;;;;21.01;34.76;94068.66;6217431;28;108849;-60
2023/04/14 03:34:58;;;;;;;41.07;37.50;;;;;;;21.00;34.77;94062.50;6210887;28;109079;-61
2023/04/14 03:38:07;;;;;;;41.30;37.80;;;;;;;21.00;35.03;94049.22;6207531;28;108980;-60
2023/04/14 03:41:13;;;;;;;38.17;34.87;;;;;;;21.01;35.12;94048.16;6213377;28;108889;-60
2023/04/14 03:44:18;;;;;;;49.77;45.47;;;;;;;21.01;34.80;94034.06;6216231;28;108927;-60
2023/04/14 03:47:23;;;;;;;43.03;39.23;;;;;;;21.01;35.15;94031.41;6216107;28;109242;-62
2023/04/14 03:50:31;;;;;;;44.03;40.23;;;;;;;20.99;34.79;94007.00;6202175;28;109629;-61
2023/04/14 03:53:39;;;;;;;42.93;39.23;;;;;;;20.99;35.05;94005.09;6210359;28;108948;-61
2023/04/14 03:56:44;;;;;;;41.20;37.73;;;;;;;20.97;34.91;94001.22;6221527;28;108893;-62
2023/04/14 03:59:49;;;;;;;40.57;37.10;;;;;;;20.98;34.97;93994.78;6210515;28;108861;-66
2023/04/14 04:02:53;;;;;;;40.43;36.93;;;;;;;20.98;35.03;93989.47;6203400;28;109964;-62
2023/04/14 04:05:57;;;;;;;39.37;35.97;;;;;;;20.96;35.00;93995.13;6204595;28;108937;-61
2023/04/14 04:09:02;;;;;;;39.43;36.13;;;;;;;20.98;34.94;93984.16;6221884;27;108954;-60
2023/04/14 04:12:07;;;;;;;39.13;35.83;;;;;;;20.97;34.82;93987.91;6205166;28;110546;-60
2023/04/14 04:15:11;;;;;;;39.77;36.07;;;;;;;20.96;34.83;93986.38;6221847;27;108968;-61
2023/04/14 04:18:17;;;;;;;39.43;36.13;;;;;;;20.93;34.89;93996.56;6213258;27;108805;-61
2023/04/14 04:21:20;;;;;;;39.87;36.40;;;;;;;;;;6209730;28;109016;-62
2023/04/14 04:24:29;;;;;;;38.70;35.53;;;;;;;20.93;34.95;93998.44;6208029;28;109194;-61
2023/04/14 04:27:33;;;;;;;38.07;34.87;;;;;;;20.92;35.02;93987.03;6210728;28;109005;-61
2023/04/14 04:30:40;;;;;;;37.37;34.03;;;;;;;20.93;34.93;93991.22;6210298;28;108865;-60
2023/04/14 04:33:45;;;;;;;38.33;35.03;;;;;;;20.92;34.78;93997.66;6213259;28;108790;-62
2023/04/14 04:36:50;;;;;;;35.87;32.87;;;;;;;20.93;35.15;93987.78;6213983;27;108915;-60
2023/04/14 04:39:56;;;;;;;37.03;33.93;;;;;;;20.93;34.78;93991.22;6210143;28;109115;-61
2023/04/14 04:42:59;;;;;;;36.60;33.50;;;;;;;20.94;35.00;94005.31;6227874;28;109000;-60
2023/04/14 04:46:19;;;;;;;35.57;32.43;;;;;;;20.93;35.01;94001.88;6202653;28;108929;-61
2023/04/14 04:49:23;;;;;;;34.77;31.77;;;;;;;20.94;34.97;94015.94;6218157;28;108893;-61
2023/04/14 04:52:26;;;;;;;32.83;30.03;;;;;;;20.88;35.18;94031.31;6220384;27;108859;-61
2023/04/14 04:55:31;;;;;;;23.47;21.40;;;;;;;20.88;34.99;94038.53;6211778;28;108908;-60
2023/04/14 04:58:34;;;;;;;19.03;17.43;;;;;;;20.86;34.65;94030.09;6200088;28;109202;-61
2023/04/14 05:01:37;;;;;;;16.77;15.07;;;;;;;20.85;34.79;94034.63;6216418;28;108944;-61
2023/04/14 05:04:40;;;;;;;16.97;15.40;;;;;;;20.84;34.78;94027.75;6228132;28;108955;-61
2023/04/14 05:07:43;;;;;;;11.60;10.60;;;;;;;20.83;35.21;94020.84;6226580;27;108902;-62
2023/04/14 05:10:47;;;;;;;12.93;11.47;;;;;;;20.73;35.00;94015.94;6207625;28;108917;-62
2023/04/14 05:13:51;;;;;;;11.53;10.53;;;;;;;20.80;34.32;94016.19;6211096;28;109062;-62
2023/04/14 05:16:54;;;;;;;13.23;12.13;;;;;;;20.80;34.15;94021.50;6210731;28;108976;-61
2023/04/14 05:19:57;;;;;;;11.80;10.60;;;;;;;20.81;34.45;94023.06;6200422;28;108920;-60
2023/04/14 05:23:00;;;;;;;9.50;8.63;;;;;;;20.82;34.82;94013.19;6209579;28;108889;-61
2023/04/14 05:26:05;;;;;;;8.17;7.47;;;;;;;20.80;34.77;94002.88;6209010;28;108851;-61
2023/04/14 05:29:28;;;;;;;9.73;8.40;;;;;;;20.82;34.09;93998.03;6208022;28;108949;-62
2023/04/14 05:32:31;;;;;;;7.33;6.63;;;;;;;20.76;33.79;93994.00;6203664;28;108931;-63
2023/04/14 05:35:35;;;;;;;6.40;5.80;;;;;;;20.13;34.31;93998.34;6220153;28;108895;-62
2023/04/14 05:38:40;;;;;;;7.60;5.87;;;;;;;20.30;34.12;93986.91;6214077;28;108940;-60
2023/04/14 05:41:45;;;;;;;8.10;5.40;;;;;;;20.44;35.73;93974.19;6212039;28;108974;-61
2023/04/14 05:44:48;;;;;;;6.10;5.07;;;;;;;20.52;34.31;93973.38;6203378;28;110201;-61
2023/04/14 05:47:51;;;;;;;7.80;5.40;;;;;;;20.39;33.83;93953.09;6215016;28;108938;-61
2023/04/14 05:50:54;;;;;;;9.27;5.50;;;;;;;20.44;33.94;93944.94;6213946;28;108926;-61
2023/04/14 05:53:57;;;;;;;7.70;5.10;;;;;;;20.46;33.81;93957.91;6204022;28;108908;-62
2023/04/14 05:57:02;;;;;;;6.73;5.13;;;;;;;20.26;33.87;93936.28;6212806;28;108893;-61
2023/04/14 06:00:07;;;;;;;4.90;4.40;;;;;;;20.36;33.96;93931.72;6212461;28;108986;-60
2023/04/14 06:03:10;;;;;;;5.63;4.57;;;;;;;20.49;33.89;93941.31;6209190;28;109043;-60
2023/04/14 06:06:13;;;;;;;6.40;4.40;;;;;;;20.55;34.07;93918.78;6203977;28;110405;-61
2023/04/14 06:09:16;;;;;;;5.93;4.50;;;;;;;20.60;33.90;93930.00;6212845;28;108848;-59
2023/04/14 06:12:21;;;;;;;4.40;4.00;;;;;;;20.63;33.84;93918.72;6212353;28;109057;-61
2023/04/14 06:15:27;;;;;;;5.70;4.77;;;;;;;20.65;33.82;93921.03;6212920;28;108828;-61
2023/04/14 06:18:30;;;;;;;7.33;4.50;;;;;;;20.67;33.99;93921.53;6203220;28;109399;-61
2023/04/14 06:21:33;;;;;;;4.70;4.30;;;;;;;20.62;33.93;93925.13;6213611;28;108885;-61
2023/04/14 06:24:36;;;;;;;4.87;3.80;;;;;;;20.66;34.36;93914.63;6212833;28;108869;-61
2023/04/14 06:27:40;;;;;;;4.47;4.07;;;;;;;20.57;33.62;93911.25;6206578;28;109067;-60
2023/04/14 06:30:43;;;;;;;5.97;5.27;;;;;;;20.36;34.00;93895.31;6207187;28;108879;-61
2023/04/14 06:33:47;;;;;;;8.00;4.77;;;;;;;20.27;34.56;93887.38;6212690;28;108887;-61
2023/04/14 06:36:50;;;;;;;5.03;3.60;;;;;;;20.33;34.29;93879.97;6212601;28;109136;-60
2023/04/14 06:39:53;;;;;;;7.10;5.13;;;;;;;20.31;34.22;93858.28;6195567;28;108887;-61
2023/04/14 06:42:57;;;;;;;4.93;4.20;;;;;;;19.99;34.38;93868.44;6211668;28;108932;-61
2023/04/14 06:46:00;;;;;;;5.63;4.77;;;;;;;20.10;34.21;93837.00;6210941;28;109095;-61
2023/04/14 06:49:04;;;;;;;5.83;5.20;;;;;;;20.17;34.07;93831.19;6207602;28;108903;-61
2023/04/14 06:52:07;;;;;;;6.07;3.83;;;;;;;20.17;34.17;93837.28;6199316;28;109037;-62
2023/04/14 06:55:10;;;;;;;4.60;3.70;;;;;;;20.03;33.99;93816.25;6196602;28;108972;-60
2023/04/14 06:58:15;;;;;;;4.47;3.50;;;;;;;19.86;33.92;93803.09;6222538;28;109018;-60
2023/04/14 07:01:18;;;;;;;4.33;3.93;;;;;;;19.96;34.11;93821.28;6222543;27;109303;-61
2023/04/14 07:04:22;;;;;;;3.63;3.07;;;;;;;20.07;33.99;93818.28;6216041;28;109068;-60
2023/04/14 07:07:25;;;;;;;7.87;3.80;;;;;;;20.25;34.04;93814.44;6217593;28;108882;-60
2023/04/14 07:10:28;;;;;;;3.07;2.77;;;;;;;20.16;33.97;93795.84;6224281;27;108957;-62
2023/04/14 07:13:33;;;;;;;4.53;3.77;;;;;;;20.27;33.94;93806.91;6202697;28;109130;-60
2023/04/14 07:16:37;;;;;;;5.97;4.87;;;;;;;20.43;33.88;93813.19;6211997;28;109051;-61
2023/04/14 07:19:40;;;;;;;4.47;3.33;;;;;;;20.32;34.48;93804.81;6213846;28;108977;-60
2023/04/14 07:22:44;;;;;;;7.37;4.10;;;;;;;20.45;34.72;93796.91;6212024;28;108889;-60
2023/04/14 07:25:51;;;;;;;5.30;3.57;;;;;;;20.69;35.05;93782.97;6205525;28;108837;-61
2023/04/14 07:28:56;;;;;;;4.60;3.10;;;;;;;20.73;34.63;93775.91;6215926;28;108870;-62
2023/04/14 07:31:59;;;;;;;6.57;3.60;;;;;;;20.76;34.21;93781.31;6220525;27;108838;-61
2023/04/14 07:35:02;;;;;;;3.40;3.10;;;;;;;20.97;34.36;93764.53;6226534;27;108954;-61
2023/04/14 07:38:06;;;;;;;7.60;3.37;;;;;;;21.14;34.48;93777.66;6204445;27;111342;-58
2023/04/14 07:41:09;;;;;;;4.03;3.50;;;;;;;21.24;34.26;93785.25;6211530;28;108985;-62
2023/04/14 07:44:14;;;;;;;4.53;3.60;;;;;;;21.30;34.11;93786.56;6213803;28;108986;-61
2023/04/14 07:47:17;;;;;;;3.23;2.90;;;;;;;21.34;34.00;93776.84;6205079;28;109559;-61
2023/04/14 07:50:20;;;;;;;5.20;3.20;;;;;;;21.38;34.21;93780.38;6202847;28;108907;-62
2023/04/14 07:53:24;;;;;;;5.30;4.20;;;;;;;21.44;34.00;93794.22;6210907;28;108986;-62
2023/04/14 07:56:27;;;;;;;4.03;3.63;;;;;;;21.42;33.79;93791.91;6209020;28;108978;-62
2023/04/14 07:59:31;;;;;;;4.20;3.10;;;;;;;21.45;34.08;93798.44;6199591;28;109053;-60
2023/04/14 08:02:34;;;;;;;3.43;3.13;;;;;;;21.43;34.06;93787.34;6211279;28;109003;-62
2023/04/14 08:05:37;;;;;;;4.90;3.83;;;;;;;21.43;33.76;93782.81;6209882;28;108896;-61
2023/04/14 08:08:41;;;;;;;4.93;3.43;;;;;;;21.45;33.76;93783.25;6209774;28;109040;-61
2023/04/14 08:11:45;;;;;;;3.27;3.00;;;;;;;21.43;33.96;93764.19;6191107;28;109406;-60
2023/04/14 08:14:49;;;;;;;4.50;3.17;;;;;;;21.48;33.52;93755.19;6210999;28;108896;-61
2023/04/14 08:17:52;;;;;;;4.03;3.07;;;;;;;21.51;33.98;93759.88;6210532;28;109020;-60
2023/04/14 08:20:58;;;;;;;7.00;3.00;;;;;;;21.52;33.57;93775.50;6207204;28;108868;-62
2023/04/14 08:24:01;;;;;;;6.33;3.10;;;;;;;21.54;33.32;93771.75;6201783;28;109374;-61
2023/04/14 08:27:05;;;;;;;4.80;2.97;;;;;;;21.58;33.18;93769.97;6211149;28;108829;-61
2023/04/14 08:30:11;;;;;;;3.57;2.83;;;;;;;21.62;33.13;93770.84;6221269;28;108890;-61
2023/04/14 08:33:14;;;;;;;4.90;2.90;;;;;;;21.62;33.05;93762.84;6200249;28;108989;-61
2023/04/14 08:36:17;;;;;;;5.83;3.10;;;;;;;21.57;32.82;93757.75;6213043;28;109175;-60
2023/04/14 08:39:20;;;;;;;5.50;3.20;;;;;;;21.52;32.90;93772.06;6210587;28;108985;-60
2023/04/14 08:42:25;;;;;;;5.80;3.57;;;;;;;21.57;32.14;93763.09;6210165;28;108899;-61
2023/04/14 08:45:31;;;;;;;4.20;2.80;;;;;;;21.66;32.30;93774.38;6209237;28;109146;-61
2023/04/14 08:48:36;;;;;;;9.90;4.10;;;;;;;21.72;32.28;93778.38;6218007;28;108899;-61
2023/04/14 08:51:42;;;;;;;5.73;3.70;;;;;;;21.69;32.23;93769.19;6225142;27;108873;-64
2023/04/14 08:54:49;;;;;;;4.73;3.00;;;;;;;21.70;32.13;93757.44;6209677;28;108947;-61
2023/04/14 08:57:52;;;;;;;7.00;3.70;;;;;;;21.76;32.21;93779.25;6198896;28;110184;-61
2023/04/14 09:00:57;;;;;;;6.17;3.50;;;;;;;21.83;31.85;93773.41;6216317;28;108857;-61
2023/04/14 09:04:03;;;;;;;5.23;3.20;;;;;;;21.94;32.25;93769.94;6234387;27;109173;-61
2023/04/14 09:07:07;;;;;;;5.53;3.43;;;;;;;22.01;32.31;93780.03;6200978;27;108900;-62
2023/04/14 09:10:11;;;;;;;3.00;2.80;;;;;;;22.03;31.95;93772.50;6209507;28;109002;-61
2023/04/14 09:13:16;;;;;;;6.73;3.17;;;;;;;22.05;32.40;93786.25;6210521;28;108963;-61
2023/04/14 09:16:21;;;;;;;5.47;3.90;;;;;;;22.12;33.13;93837.06;6209707;28;109706;-61
2023/04/14 09:19:26;;;;;;;5.53;4.10;;;;;;;22.15;32.74;93814.31;6198930;28;108854;-60
2023/04/14 09:22:29;;;;;;;8.40;4.67;;;;;;;22.17;33.04;93793.44;6210364;28;109118;-62
2023/04/14 09:25:32;;;;;;;8.13;4.50;;;;;;;22.16;31.99;93805.22;6197303;28;109023;-59
2023/04/14 09:28:35;;;;;;;7.43;3.40;;;;;;;22.09;28.94;93785.25;6209095;27;108921;-60
2023/04/14 09:31:40;;;;;;;12.13;3.87;;;;;;;22.22;28.10;93785.22;6198405;28;108937;-60
2023/04/14 09:34:51;;;;;;;6.50;3.23;;;;;;;22.24;28.25;93791.00;6209674;28;108919;-61
2023/04/14 09:37:56;;;;;;;14.30;3.90;;;;;;;22.14;27.67;93800.22;6223261;28;109240;-61
2023/04/14 09:41:00;;;;;;;8.57;2.37;;;;;;;22.01;26.83;93790.69;6204069;28;109422;-60
2023/04/14 09:44:08;;;;;;;9.43;3.00;;;;;;;22.04;26.62;93801.47;6205332;28;108961;-62
2023/04/14 09:47:15;;;;;;;11.83;3.53;;;;;;;22.03;27.41;93831.88;6208011;28;108956;-60
2023/04/14 09:50:18;;;;;;;10.97;3.43;;;;;;;22.02;27.40;93841.00;6208898;28;108951;-61
2023/04/14 09:53:25;;;;;;;8.63;2.60;;;;;;;21.98;27.07;93828.66;6218293;28;109296;-61
2023/04/14 09:56:29;;;;;;;8.03;2.77;;;;;;;21.92;27.07;93817.47;6214039;27;108904;-61
2023/04/14 09:59:33;;;;;;;7.03;2.50;;;;;;;21.81;26.75;93837.63;6222988;28;109183;-61
2023/04/14 10:02:49;;;;;;;9.07;2.97;;;;;;;21.77;26.99;93842.06;6212006;27;109565;-60
2023/04/14 10:05:53;;;;;;;16.00;3.70;;;;;;;21.81;27.39;93840.28;6201819;28;109158;-61
2023/04/14 10:08:57;;;;;;;7.30;2.90;;;;;;;21.81;27.38;93822.41;6209401;28;108957;-60
2023/04/14 10:12:08;;;;;;;8.07;2.60;;;;;;;21.79;27.40;93879.78;6208639;28;109008;-61
2023/04/14 10:15:14;;;;;;;9.03;3.10;;;;;;;21.70;27.43;93837.28;6216852;28;109321;-61
2023/04/14 10:18:18;;;;;;;8.27;2.57;;;;;;;21.61;27.54;93846.47;6208242;27;108963;-60
2023/04/14 10:21:22;;;;;;;10.30;3.10;;;;;;;21.56;27.35;93876.00;6212256;28;108958;-60
2023/04/14 10:24:25;;;;;;;9.20;3.23;;;;;;;21.66;27.97;93876.31;6215888;28;109270;-60
2023/04/14 10:27:30;;;;;;;8.37;2.60;;;;;;;21.77;27.54;93914.72;6201759;28;109074;-61
2023/04/14 10:30:34;;;;;;;7.80;3.00;;;;;;;21.82;27.89;93921.75;6232268;28;108989;-61
2023/04/14 10:33:38;;;;;;;5.77;2.27;;;;;;;21.87;28.63;93980.16;6212020;28;108984;-62
2023/04/14 10:36:43;;;;;;;9.60;3.40;;;;;;;21.87;28.68;93950.84;6211895;28;109029;-60
2023/04/14 10:39:55;;;;;;;13.10;3.57;;;;;;;21.82;29.20;93996.31;6203432;28;109207;-64
2023/04/14 10:42:58;;;;;;;8.30;2.73;;;;;;;21.85;29.79;94019.66;6230610;28;110414;-61
2023/04/14 10:46:01;;;;;;;9.50;3.20;;;;;;;21.85;30.07;94043.63;6212483;27;109261;-61
2023/04/14 10:49:07;;;;;;;4.70;2.90;;;;;;;21.80;30.58;94084.50;6207608;28;109073;-61
2023/04/14 10:52:33;;;;;;;6.63;3.53;;;;;;;21.80;30.61;94067.75;6207078;28;108894;-60
2023/04/14 10:55:45;;;;;;;7.73;3.67;;;;;;;21.78;31.15;94064.63;6219593;28;108822;-61
2023/04/14 10:58:55;;;;;;;8.60;3.50;;;;;;;21.80;31.48;94073.06;6226001;28;108879;-60
2023/04/14 11:01:59;;;;;;;8.90;3.40;;;;;;;21.81;31.80;94086.06;6205193;27;109755;-61
2023/04/14 11:05:05;;;;;;;5.73;3.33;;;;;;;21.80;32.11;94067.75;6211867;28;108976;-62
2023/04/14 11:08:13;;;;;;;6.23;4.20;;;;;;;21.80;32.12;94086.38;6211505;28;108865;-61
2023/04/14 11:11:17;;;;;;;6.93;4.80;;;;;;;21.79;32.78;94108.81;6211232;28;108882;-59
2023/04/14 11:14:26;;;;;;;7.83;4.70;;;;;;;21.86;33.22;94114.44;6203539;28;109269;-59
2023/04/14 11:17:31;;;;;;;7.40;4.70;;;;;;;21.87;32.91;94129.31;6206494;28;109326;-58
2023/04/14 11:20:40;;;;;;;8.30;5.27;;;;;;;21.88;33.22;94146.06;6212638;28;109003;-59
2023/04/14 11:23:43;;;;;;;14.50;5.10;;;;;;;21.87;33.46;94163.16;6196366;28;108828;-59
2023/04/14 11:26:47;;;;;;;5.23;4.73;;;;;;;21.88;33.54;94170.03;6211262;28;108917;-60
2023/04/14 11:29:51;;;;;;;4.90;4.00;;;;;;;21.86;33.50;94169.56;6211692;28;109286;-58
2023/04/14 11:32:56;;;;;;;6.70;4.87;;;;;;;21.86;33.61;94186.34;6211855;28;109018;-60
2023/04/14 11:36:02;;;;;;;6.37;4.30;;;;;;;21.88;33.98;94202.00;6201740;28;110133;-58
2023/04/14 11:39:05;;;;;;;5.43;4.67;;;;;;;21.86;34.23;94201.53;6212583;28;108887;-59
2023/04/14 11:42:08;;;;;;;5.67;3.83;;;;;;;21.86;34.31;94215.63;6211780;28;108871;-67
2023/04/14 11:45:14;;;;;;;5.80;4.53;;;;;;;21.83;33.99;94229.56;6211871;28;108931;-59
2023/04/14 11:48:18;;;;;;;5.37;4.07;;;;;;;21.84;34.02;94230.34;6200781;28;109062;-58
2023/04/14 11:51:29;;;;;;;5.33;4.73;;;;;;;21.83;34.58;94237.56;6230190;28;108997;-59
2023/04/14 11:54:35;;;;;;;6.80;4.10;;;;;;;21.85;34.33;94240.72;6236843;27;108977;-59
2023/04/14 11:57:43;;;;;;;5.70;3.90;;;;;;;21.85;34.80;94245.25;6223106;27;109551;-58
2023/04/14 12:00:48;;;;;;;5.73;3.70;;;;;;;21.82;34.68;94252.00;6228985;27;108932;-60
2023/04/14 12:03:52;;;;;;;4.07;3.67;;;;;;;21.80;34.64;94233.63;6211591;28;108967;-59
2023/04/14 12:06:57;;;;;;;4.43;4.00;;;;;;;21.80;34.71;94240.84;6203329;28;109001;-58
2023/04/14 12:10:01;;;;;;;4.03;3.63;;;;;;;21.78;34.64;94246.50;6225756;27;109801;-58
2023/04/14 12:13:06;;;;;;;5.07;4.30;;;;;;;21.78;34.88;94241.16;6222097;28;108888;-58
2023/04/14 12:16:10;;;;;;;4.60;4.20;;;;;;;21.78;35.16;94241.16;6211725;28;108890;-59
2023/04/14 12:19:13;;;;;;;5.50;5.00;;;;;;;21.80;34.98;94254.94;6210920;28;109084;-58
2023/04/14 12:22:25;;;;;;;4.50;3.70;;;;;;;21.77;35.41;94250.28;6215955;28;108910;-58
2023/04/14 12:25:31;;;;;;;5.43;3.93;;;;;;;21.76;34.98;94261.25;6235989;27;108974;-59
2023/04/14 12:28:37;;;;;;;4.27;3.43;;;;;;;21.76;35.30;94266.56;6236434;27;108761;-59
2023/04/14 12:31:43;;;;;;;4.30;3.20;;;;;;;21.74;35.20;94256.25;6214391;27;108915;-59
2023/04/14 12:34:57;;;;;;;5.33;3.83;;;;;;;21.76;34.99;94222.06;6210769;28;108929;-59
2023/04/14 12:38:08;;;;;;;5.23;3.40;;;;;;;21.77;35.70;94181.03;6210943;28;108756;-59
2023/04/14 12:41:21;;;;;;;3.20;2.90;;;;;;;21.76;35.71;94192.00;6216792;27;108921;-57
2023/04/14 12:44:24;;;;;;;5.70;4.77;;;;;;;21.77;35.68;94190.91;6222301;27;109865;-58
2023/04/14 12:47:29;;;;;;;5.30;3.77;;;;;;;21.77;35.24;94180.25;6211460;28;108978;-58
2023/04/14 12:50:33;;;;;;;2.83;2.57;;;;;;;21.77;35.52;94185.56;6210842;28;109113;-58
2023/04/14 12:53:37;;;;;;;4.20;3.10;;;;;;;21.77;36.02;94199.66;6215070;28;108987;-60
2023/04/14 12:56:42;;;;;;;3.50;3.20;;;;;;;21.79;35.43;94188.69;6215091;27;108903;-58
2023/04/14 12:59:45;;;;;;;3.87;3.00;;;;;;;21.77;36.35;94207.66;6210564;28;108912;-58
2023/04/14 13:02:49;;;;;;;4.07;2.73;;;;;;;21.79;36.43;94220.66;6209453;28;108936;-60
2023/04/14 13:05:54;;;;;;;3.90;3.13;;;;;;;21.80;36.36;94232.84;6200506;28;109332;-60
2023/04/14 13:08:58;;;;;;;4.10;3.13;;;;;;;21.82;36.30;94206.72;6209639;28;108979;-59
2023/04/14 13:12:02;;;;;;;3.73;2.70;;;;;;;21.85;36.17;94211.41;6210773;28;108750;-59
2023/04/14 13:15:07;;;;;;;3.50;3.20;;;;;;;21.85;36.25;94213.28;6211280;28;108892;-59
2023/04/14 13:18:10;;;;;;;4.43;3.07;;;;;;;21.80;36.57;94207.00;6212576;28;108863;-57
2023/04/14 13:21:13;;;;;;;3.50;3.20;;;;;;;21.83;36.40;94188.84;6210699;27;108965;-58
2023/04/14 13:24:18;;;;;;;2.63;2.43;;;;;;;21.83;36.71;94210.94;6210110;28;108841;-59
2023/04/14 13:27:21;;;;;;;3.30;2.63;;;;;;;21.82;36.74;94238.66;6209712;28;108960;-58
2023/04/14 13:30:24;;;;;;;4.10;2.80;;;;;;;21.84;36.73;94249.00;6199184;28;109331;-58
2023/04/14 13:33:27;;;;;;;3.30;3.00;;;;;;;21.81;37.34;94255.72;6221546;28;108955;-57
2023/04/14 13:36:30;;;;;;;3.10;2.80;;;;;;;21.83;37.02;94261.53;6209906;28;108900;-59
2023/04/14 13:39:35;;;;;;;3.40;2.77;;;;;;;21.83;37.46;94244.78;6227822;28;109492;-59
2023/04/14 13:42:38;;;;;;;2.50;2.30;;;;;;;21.84;37.26;94185.06;6229972;27;109061;-61
2023/04/14 13:45:41;;;;;;;2.63;2.43;;;;;;;21.84;36.97;94227.69;6234744;27;109031;-58
2023/04/14 13:48:44;;;;;;;3.37;2.67;;;;;;;21.87;37.25;94259.03;6228217;27;109310;-59
2023/04/14 13:51:47;;;;;;;3.50;2.53;;;;;;;21.89;37.42;94272.81;6213861;28;108906;-59
2023/04/14 13:54:51;;;;;;;3.60;2.50;;;;;;;21.86;37.30;94255.59;6237769;27;108795;-59
2023/04/14 13:57:54;;;;;;;2.83;2.57;;;;;;;21.88;37.43;94233.94;6228916;27;109696;-59
2023/04/14 14:00:58;;;;;;;2.57;2.37;;;;;;;21.87;37.56;94249.16;6213346;28;108998;-59
2023/04/14 14:04:01;;;;;;;2.83;2.60;;;;;;;21.86;37.76;94258.25;6202386;28;108908;-59
2023/04/14 14:07:04;;;;;;;2.33;2.13;;;;;;;21.89;37.65;94259.47;6197157;28;108889;-60
2023/04/14 14:10:09;;;;;;;3.00;2.60;;;;;;;21.87;37.74;94232.41;6224898;27;109083;-60
2023/04/14 14:13:13;;;;;;;3.33;2.40;;;;;;;21.88;37.27;94236.63;6208937;28;109618;-60